LiveATC.Net - Listen to live air traffic control over the Internet! Contact for advertising information

ICAO: KPVU  IATA: PVU   Airport: Provo Municipal Airport
City: Provo   State/Province: Utah
Country: United States   Continent: North America
KPVU METAR Weather: KPVU 252348Z 13010KT 10SM SCT015 OVC035 02/M01 A2970
KPVU Flight Activity (FlightAware)
KPVU Airport Info   (AirNav) (iFlightPlanner)
KPVU VFR Sectional Chart   (iFlightPlanner) 
KPVU IFR Low Chart   (iFlightPlanner) 
KPVU Tower
Feed Status: UP   Listeners: 2
Listen right in your browser - requires Flash (in browser, requires Flash)
Click here to listen with your own player (launches your MP3 player)
KPVU Tower Audio Archives
Provo Tower125.300


Unauthorized use prohibited. See Terms of Service

Find LiveATC Audio Streams

Airport/ARTCC Code

(e.g., 124.400, 128.75)
Site-wide search

Browse LiveATC Feeds
LiveATC Coverage Map
Top 50 LiveATC Feeds
Bad Weather Areas

Offer a LiveATC Feed
Press Inquiries

LiveATC on iPhone
LiveATC on Android

Windows Phone
Windows 8/10

LiveATC Mobile
(Mobile browser)

ATC Audio Archives
Interesting Recordings

LiveATC Forums

Home Page
Make a Donation
LiveATC Bookstore

Terms of Use
Privacy Policy

ATC/Radar Sites
U.S. ARTCC Freqs
Canadian Air Freqs


FAA Airport Status
Nat'l Airspace Status
Arrival Demand Charts

Server Software By:

Please make a donation to help us keep growing!